Time;durP1;ratioP1;P1;durP2;ratioP2;P2;SDS_P1;SDS_P2;PMS_P1;PMS_P2;Temp;Humidity;BMP_temperature;BMP_pressure;BME280_temperature;BME280_humidity;BME280_pressure;Samples;Min_cycle;Max_cycle;Signal;HPM_P1;HPM_P2
2022/08/26 00:01:53;;;;;;;6.65;2.13;;;;;;;20.62;78.20;101172.28;5075302;28;20048;-63
2022/08/26 00:04:24;;;;;;;5.23;2.27;;;;;;;20.64;78.84;101174.72;5080750;28;20534;-64
2022/08/26 00:06:55;;;;;;;4.95;2.33;;;;;;;20.69;78.19;101178.03;5067242;28;20630;-65
2022/08/26 00:09:24;;;;;;;5.03;1.92;;;;;;;20.69;78.32;101171.63;5020586;28;20515;-66
2022/08/26 00:11:52;;;;;;;8.05;2.78;;;;;;;20.82;77.70;101179.47;5055001;28;20407;-63
2022/08/26 00:14:21;;;;;;;5.65;2.45;;;;;;;20.61;77.96;101181.84;5054558;28;20511;-64
2022/08/26 00:16:54;;;;;;;5.28;2.55;;;;;;;20.43;79.55;101183.50;5055035;28;20060;-64
2022/08/26 00:19:21;;;;;;;8.50;2.67;;;;;;;20.36;80.39;101191.75;5055093;28;20526;-66
2022/08/26 00:21:49;;;;;;;5.03;2.33;;;;;;;20.60;79.29;101188.63;5036981;28;20045;-64
2022/08/26 00:24:19;;;;;;;5.25;2.63;;;;;;;20.43;79.70;101191.06;5071085;28;20049;-64
2022/08/26 00:26:47;;;;;;;5.05;2.88;;;;;;;20.34;80.42;101191.28;5074384;28;20056;-64
2022/08/26 00:29:14;;;;;;;6.25;2.40;;;;;;;20.52;79.73;101194.47;5074888;28;20045;-64
2022/08/26 00:31:42;;;;;;;6.63;2.75;;;;;;;20.61;79.21;101197.81;5056477;28;20182;-64
2022/08/26 00:34:13;;;;;;;5.75;2.20;;;;;;;20.19;81.13;101191.38;5075298;28;20056;-65
2022/08/26 00:36:42;;;;;;;3.67;1.90;;;;;;;20.45;79.82;101188.72;5057113;28;20055;-65
2022/08/26 00:39:10;;;;;;;5.22;2.92;;;;;;;20.17;81.39;101190.91;5075015;28;20045;-64
2022/08/26 00:41:38;;;;;;;2.88;1.92;;;;;;;20.38;81.01;101194.16;5074451;28;20059;-65
2022/08/26 00:44:06;;;;;;;6.95;3.08;;;;;;;19.99;82.22;101182.91;5056826;28;20060;-64
2022/08/26 00:46:36;;;;;;;3.67;2.55;;;;;;;19.86;83.73;101189.78;5074378;28;20049;-64
2022/08/26 00:49:07;;;;;;;5.38;2.75;;;;;;;19.86;83.66;101191.75;5056921;28;20048;-66
2022/08/26 00:51:56;;;;;;;4.55;2.78;;;;;;;19.86;83.83;101191.75;5074473;28;20048;-65
2022/08/26 00:54:26;;;;;;;7.35;2.55;;;;;;;20.17;82.50;101198.13;5039696;28;20515;-64
2022/08/26 00:56:58;;;;;;;5.45;2.70;;;;;;;20.11;82.21;101204.34;5074397;28;20428;-64
2022/08/26 00:59:28;;;;;;;8.27;2.85;;;;;;;20.21;82.23;101200.19;5073956;28;20067;-64
2022/08/26 01:02:00;;;;;;;5.13;2.55;;;;;;;20.19;82.37;101197.75;5037261;28;20049;-66
2022/08/26 01:04:31;;;;;;;6.72;2.88;;;;;;;20.60;80.20;101194.25;5067287;28;20051;-65
2022/08/26 01:06:58;;;;;;;6.28;3.10;;;;;;;20.35;81.13;101200.47;5047071;28;20475;-65
2022/08/26 01:09:26;;;;;;;8.65;3.92;;;;;;;20.09;82.72;101193.53;5036699;28;20064;-64
2022/08/26 01:11:56;;;;;;;7.75;4.30;;;;;;;19.94;83.42;101196.38;5036510;28;20053;-63
2022/08/26 01:14:23;;;;;;;;;;;;;;;20.07;83.04;101192.25;5020858;28;20068;-63
2022/08/26 01:16:51;;;;;;;6.38;4.40;;;;;;;19.71;85.09;101190.63;5052132;28;19939;-64
2022/08/26 01:19:22;;;;;;;6.45;3.50;;;;;;;19.86;84.89;101195.38;5054516;28;20052;-64
2022/08/26 01:22:18;;;;;;;6.90;3.38;;;;;;;20.17;82.95;101192.53;5036285;28;20150;-64
2022/08/26 01:24:47;;;;;;;7.75;4.30;;;;;;;19.96;83.87;101188.44;5076966;28;20064;-65
2022/08/26 01:27:17;;;;;;;9.90;5.18;;;;;;;19.92;84.26;101193.13;5060461;28;20044;-64
2022/08/26 01:29:47;;;;;;;7.72;4.60;;;;;;;20.26;83.21;101195.09;5044171;28;20055;-64
2022/08/26 01:32:21;;;;;;;5.95;3.65;;;;;;;20.16;82.37;101198.47;5044873;28;20060;-64
2022/08/26 01:34:49;;;;;;;7.88;4.45;;;;;;;20.08;83.39;101196.69;5041096;28;20362;-64
2022/08/26 01:37:21;;;;;;;7.55;5.00;;;;;;;20.14;82.65;101195.22;5057745;28;20055;-64
2022/08/26 01:39:51;;;;;;;8.60;5.57;;;;;;;19.66;85.29;101192.91;5040522;28;20045;-63
2022/08/26 01:42:20;;;;;;;6.70;4.13;;;;;;;19.85;85.46;101198.53;5057127;28;20057;-63
2022/08/26 01:44:56;;;;;;;9.48;5.40;;;;;;;19.81;84.76;101204.06;5040853;28;20059;-64
2022/08/26 01:47:24;;;;;;;10.90;6.15;;;;;;;19.49;86.87;101199.66;5057731;28;20527;-63
2022/08/26 01:49:53;;;;;;;7.95;5.57;;;;;;;19.57;86.78;101195.06;5040569;28;20055;-64
2022/08/26 01:52:24;;;;;;;9.07;5.32;;;;;;;19.79;86.10;101191.59;5057705;28;20052;-63
2022/08/26 01:54:56;;;;;;;8.35;4.78;;;;;;;19.88;84.65;101198.63;5040339;28;20075;-63
2022/08/26 01:57:24;;;;;;;8.15;5.65;;;;;;;20.26;83.04;101202.72;5039920;28;20037;-62
2022/08/26 01:59:54;;;;;;;12.07;7.07;;;;;;;20.29;82.15;101207.56;5057260;28;20060;-63
2022/08/26 02:02:21;;;;;;;12.60;6.80;;;;;;;19.69;85.58;101209.75;5039752;28;20063;-62
2022/08/26 02:04:59;;;;;;;13.55;8.30;;;;;;;19.38;87.13;101209.78;5058961;28;20051;-65
2022/08/26 02:07:26;;;;;;;10.43;7.65;;;;;;;19.55;87.05;101203.00;5059415;28;20053;-65
2022/08/26 02:09:54;;;;;;;9.85;7.30;;;;;;;19.49;87.22;101207.25;5057761;28;20049;-65
2022/08/26 02:12:21;;;;;;;9.35;6.97;;;;;;;19.98;85.13;101214.00;5073996;28;20056;-65
2022/08/26 02:14:52;;;;;;;11.82;7.82;;;;;;;19.44;87.03;101216.69;5042546;28;20052;-64
2022/08/26 02:17:26;;;;;;;12.30;6.90;;;;;;;19.69;87.38;101215.34;5043338;28;20067;-65
2022/08/26 02:19:54;;;;;;;14.70;7.60;;;;;;;19.42;87.55;101219.03;5043338;28;20052;-65
2022/08/26 02:22:22;;;;;;;12.80;8.40;;;;;;;19.48;87.48;101212.03;5076874;28;20415;-65
2022/08/26 02:24:53;;;;;;;12.68;7.97;;;;;;;19.57;87.03;101211.84;5075563;28;20063;-65
2022/08/26 02:27:24;;;;;;;14.13;7.57;;;;;;;19.72;86.11;101208.19;5038245;28;20455;-65
2022/08/26 02:30:00;;;;;;;14.88;8.98;;;;;;;19.51;87.50;101204.91;5057267;28;20060;-65
2022/08/26 02:32:27;;;;;;;12.10;8.77;;;;;;;19.69;86.41;101206.97;5039249;28;20060;-65
2022/08/26 02:34:54;;;;;;;11.93;8.60;;;;;;;19.47;88.10;101224.38;5057356;28;20056;-65
2022/08/26 02:37:22;;;;;;;12.98;8.65;;;;;;;19.37;89.29;101212.94;5056216;28;20220;-65
2022/08/26 02:39:49;;;;;;;12.15;8.55;;;;;;;19.65;86.66;101217.25;5057135;28;20081;-65
2022/08/26 02:42:18;;;;;;;11.48;8.25;;;;;;;19.67;87.75;101212.09;5056654;28;20538;-65
2022/08/26 02:44:45;;;;;;;10.48;6.60;;;;;;;20.14;84.73;101214.78;5056927;28;20064;-66
2022/08/26 02:47:13;;;;;;;14.98;9.80;;;;;;;19.85;84.63;101224.53;5056700;28;20049;-65
2022/08/26 02:49:43;;;;;;;15.25;9.50;;;;;;;19.53;87.21;101225.72;5039542;28;20056;-65
2022/08/26 02:52:14;;;;;;;17.17;10.77;;;;;;;19.34;88.51;101222.84;5035464;28;20053;-66
2022/08/26 02:54:41;;;;;;;15.30;10.48;;;;;;;19.13;90.17;101211.06;5039390;28;20056;-65
2022/08/26 02:57:10;;;;;;;15.05;9.25;;;;;;;19.55;88.99;101212.19;5056491;28;20053;-65
2022/08/26 02:59:38;;;;;;;14.57;10.23;;;;;;;19.51;87.82;101218.88;5056768;28;20068;-65
2022/08/26 03:02:06;;;;;;;16.90;10.80;;;;;;;19.42;88.69;101223.84;5038079;28;20474;-65
2022/08/26 03:04:33;;;;;;;15.25;11.32;;;;;;;19.34;89.66;101227.59;5070621;28;20048;-65
2022/08/26 03:07:01;;;;;;;13.18;8.82;;;;;;;19.70;88.04;101216.16;5065939;28;20499;-66
2022/08/26 03:09:28;;;;;;;15.25;10.88;;;;;;;19.77;86.09;101214.31;5038747;28;20064;-67
2022/08/26 03:11:56;;;;;;;14.15;9.43;;;;;;;19.88;86.34;101215.41;5056170;28;20778;-65
2022/08/26 03:14:24;;;;;;;14.77;11.35;;;;;;;19.48;88.27;101219.59;5056463;28;20045;-66
2022/08/26 03:16:53;;;;;;;16.90;11.40;;;;;;;19.58;86.97;101214.25;5056333;28;20052;-66
2022/08/26 03:19:22;;;;;;;16.60;12.13;;;;;;;19.38;88.22;101211.75;5056520;28;20056;-66
2022/08/26 03:21:51;;;;;;;21.90;11.77;;;;;;;19.35;89.18;101216.09;5055908;28;20041;-66
2022/08/26 03:24:25;;;;;;;13.73;10.30;;;;;;;19.53;88.34;101211.75;5073200;28;20055;-66
2022/08/26 03:26:52;;;;;;;15.32;11.10;;;;;;;19.31;89.16;101211.56;5075878;28;20045;-66
2022/08/26 03:32:07;;;;;;;13.98;10.38;;;;;;;19.75;88.45;101210.28;5075841;28;20471;-66
2022/08/26 03:34:35;;;;;;;17.95;11.73;;;;;;;19.78;87.08;101215.16;5076225;28;20052;-66
2022/08/26 03:37:02;;;;;;;15.30;10.45;;;;;;;19.73;86.51;101223.81;5075635;28;20059;-65
2022/08/26 03:39:30;;;;;;;19.70;12.00;;;;;;;19.42;88.36;101221.03;5076121;28;20053;-66
2022/08/26 03:41:57;;;;;;;16.80;11.85;;;;;;;19.54;87.69;101220.94;5075850;28;20049;-65
2022/08/26 03:44:25;;;;;;;16.85;11.70;;;;;;;19.74;87.93;101208.66;5075724;28;20055;-65
2022/08/26 03:46:53;;;;;;;17.40;11.38;;;;;;;20.44;83.00;101204.69;5074902;28;20447;-65
2022/08/26 03:49:21;;;;;;;14.73;11.93;;;;;;;19.74;85.47;101203.88;5075443;28;20052;-66
2022/08/26 03:51:49;;;;;;;17.33;12.30;;;;;;;19.58;87.01;101205.88;5075261;28;20075;-66
2022/08/26 03:54:16;;;;;;;16.65;12.00;;;;;;;19.62;87.59;101203.19;5058270;28;20059;-66
2022/08/26 03:56:44;;;;;;;17.05;13.00;;;;;;;19.75;87.32;101210.28;5075566;28;20048;-68
2022/08/26 03:59:13;;;;;;;17.63;12.10;;;;;;;19.66;87.85;101212.47;5041810;28;20488;-66
2022/08/26 04:01:40;;;;;;;20.52;13.95;;;;;;;19.55;88.26;101209.41;5075245;28;20508;-65
2022/08/26 04:04:07;;;;;;;19.63;13.40;;;;;;;19.52;87.72;101207.34;5078974;28;20051;-66
2022/08/26 04:06:42;;;;;;;18.25;13.40;;;;;;;19.60;87.80;101211.09;5072132;28;20041;-65
2022/08/26 04:09:14;;;;;;;18.92;13.13;;;;;;;19.79;87.13;101209.19;5037217;28;20076;-66
2022/08/26 04:11:43;;;;;;;21.10;15.13;;;;;;;19.34;88.69;101211.66;5055002;28;20060;-66
2022/08/26 04:14:17;;;;;;;21.95;14.52;;;;;;;19.15;90.80;101214.31;5055340;28;20057;-66
2022/08/26 04:16:51;;;;;;;20.75;14.07;;;;;;;18.99;92.27;101205.94;5037355;28;20500;-66
2022/08/26 04:19:19;;;;;;;21.73;14.70;;;;;;;19.03;92.30;101217.19;5054870;28;20048;-64
2022/08/26 04:21:50;;;;;;;17.33;13.05;;;;;;;19.39;91.19;101214.19;5054784;28;20061;-64
2022/08/26 04:24:20;;;;;;;23.38;14.85;;;;;;;19.37;90.68;101215.72;5070955;28;20056;-64
2022/08/26 04:26:47;;;;;;;21.30;14.70;;;;;;;19.39;90.17;101213.38;5057038;28;20056;-64
2022/08/26 04:29:18;;;;;;;22.13;15.80;;;;;;;19.29;89.75;101222.25;5056857;28;20063;-64
2022/08/26 04:31:49;;;;;;;21.70;15.13;;;;;;;18.75;93.66;101222.00;5074671;28;20053;-64
2022/08/26 04:34:24;;;;;;;24.90;16.35;;;;;;;18.79;94.75;101223.72;5058471;28;20646;-65
2022/08/26 04:36:56;;;;;;;22.13;15.27;;;;;;;18.98;93.36;101215.50;5074662;28;20080;-64
2022/08/26 04:39:23;;;;;;;22.15;15.10;;;;;;;19.17;92.07;101217.56;5074698;28;20048;-63
2022/08/26 04:41:53;;;;;;;22.05;14.30;;;;;;;19.20;91.90;101222.44;5074316;28;20057;-64
2022/08/26 04:44:23;;;;;;;21.23;15.00;;;;;;;19.18;92.04;101233.16;5074779;28;20057;-64
2022/08/26 04:46:51;;;;;;;21.05;15.80;;;;;;;19.23;90.91;101215.34;5074268;28;20040;-63
2022/08/26 04:49:19;;;;;;;18.58;14.27;;;;;;;19.37;91.50;101233.28;5040257;28;20049;-63
2022/08/26 04:51:47;;;;;;;25.33;16.30;;;;;;;19.48;90.19;101233.56;5056342;28;20060;-65
2022/08/26 04:54:15;;;;;;;19.33;14.85;;;;;;;19.67;88.67;101234.47;5074473;28;20049;-63
2022/08/26 04:56:44;;;;;;;22.45;15.23;;;;;;;19.66;87.56;101235.66;5074430;28;20055;-63
2022/08/26 04:59:14;;;;;;;21.17;14.57;;;;;;;19.58;88.30;101231.03;5073731;28;20075;-64
2022/08/26 05:01:50;;;;;;;19.70;14.43;;;;;;;19.49;89.72;101230.41;5073636;28;20063;-63
2022/08/26 05:04:18;;;;;;;24.88;16.50;;;;;;;19.67;88.35;101225.25;5061452;28;20258;-63
2022/08/26 05:06:47;;;;;;;21.20;15.07;;;;;;;19.44;89.50;101238.28;5049017;28;20056;-64
2022/08/26 05:09:17;;;;;;;22.67;15.65;;;;;;;19.50;89.20;101236.81;5054141;28;20053;-64
2022/08/26 05:11:45;;;;;;;27.20;17.05;;;;;;;19.06;91.71;101236.03;5053737;28;20056;-64
2022/08/26 05:14:21;;;;;;;21.02;16.00;;;;;;;19.18;91.72;101238.75;5054138;28;20053;-64
2022/08/26 05:16:50;;;;;;;24.73;16.50;;;;;;;19.07;92.41;101246.81;5053807;28;20049;-65
2022/08/26 05:19:17;;;;;;;22.63;16.65;;;;;;;19.17;92.42;101251.09;5054523;28;20569;-65
2022/08/26 05:21:47;;;;;;;22.33;15.10;;;;;;;19.34;91.73;101252.75;5053746;28;20052;-63
2022/08/26 05:24:16;;;;;;;26.90;17.85;;;;;;;19.01;92.65;101250.25;5052090;28;20041;-64
2022/08/26 05:26:45;;;;;;;26.55;17.42;;;;;;;19.05;92.67;101265.94;5074132;28;20052;-63
2022/08/26 05:29:15;;;;;;;24.15;16.90;;;;;;;19.10;93.09;101267.66;5074538;28;20484;-63
2022/08/26 05:31:43;;;;;;;23.38;16.27;;;;;;;19.35;91.08;101258.00;5072099;28;20048;-64
2022/08/26 05:34:10;;;;;;;22.38;15.82;;;;;;;19.43;90.97;101265.38;5074434;28;20063;-64
2022/08/26 05:36:38;;;;;;;22.23;16.92;;;;;;;19.20;91.17;101266.31;5073744;28;20056;-64
2022/08/26 05:39:06;;;;;;;23.58;16.88;;;;;;;19.08;92.15;101278.38;5074502;28;20044;-63
2022/08/26 05:41:36;;;;;;;27.73;19.52;;;;;;;19.18;92.22;101260.28;5074086;28;20040;-63
2022/08/26 05:44:07;;;;;;;28.45;19.05;;;;;;;19.23;91.68;101266.41;5072990;28;20063;-63
2022/08/26 05:46:35;;;;;;;;;;;;;;;19.58;89.97;101274.97;5073885;28;20064;-63
2022/08/26 05:49:04;;;;;;;27.23;18.55;;;;;;;19.78;87.83;101276.66;5074222;28;19921;-63
2022/08/26 05:51:33;;;;;;;28.48;18.27;;;;;;;19.80;88.02;101275.13;5073522;28;20053;-63
2022/08/26 05:54:01;;;;;;;26.52;18.33;;;;;;;19.44;89.47;101278.16;5056250;28;20118;-64
2022/08/26 05:56:29;;;;;;;25.63;18.13;;;;;;;19.36;90.63;101281.16;5073811;28;20051;-65
2022/08/26 05:58:58;;;;;;;26.17;17.27;;;;;;;19.80;88.89;101277.94;5056277;28;20048;-63
2022/08/26 06:01:26;;;;;;;22.75;16.45;;;;;;;19.92;87.79;101274.22;5055993;28;20487;-66
2022/08/26 06:03:56;;;;;;;24.35;17.55;;;;;;;20.03;86.38;101273.28;5057810;28;20041;-65
2022/08/26 06:06:31;;;;;;;26.98;18.67;;;;;;;19.83;86.59;101274.41;5072363;28;20048;-67
2022/08/26 06:09:00;;;;;;;27.77;18.58;;;;;;;19.66;87.66;101279.53;5035723;28;20052;-65
2022/08/26 06:11:29;;;;;;;27.80;18.75;;;;;;;19.94;87.29;101280.25;5055348;28;20049;-66
2022/08/26 06:14:01;;;;;;;28.13;18.93;;;;;;;19.42;88.59;101288.88;5039979;28;20053;-66
2022/08/26 06:16:33;;;;;;;26.90;18.70;;;;;;;19.48;89.59;101281.88;5039851;28;20041;-65
2022/08/26 06:19:02;;;;;;;27.25;20.38;;;;;;;19.66;88.38;101285.13;5039445;28;20146;-66
2022/08/26 06:21:38;;;;;;;27.85;20.27;;;;;;;19.69;87.58;101296.41;5068033;28;20063;-64
2022/08/26 06:27:03;;;;;;;27.35;19.08;;;;;;;19.26;90.85;101287.22;5057217;28;20052;-65
2022/08/26 06:29:32;;;;;;;24.38;17.13;;;;;;;19.49;88.77;101283.50;5057068;28;20419;-63
2022/08/26 06:32:00;;;;;;;29.73;18.17;;;;;;;19.30;89.68;101277.78;5038776;28;20777;-65
2022/08/26 06:34:28;;;;;;;26.80;17.85;;;;;;;19.61;88.36;101277.84;5057448;28;20049;-63
2022/08/26 06:36:59;;;;;;;22.10;16.37;;;;;;;19.85;86.14;101279.63;5056878;28;20052;-63
2022/08/26 06:39:28;;;;;;;25.25;17.15;;;;;;;19.78;86.62;101277.47;5056675;28;20311;-64
2022/08/26 06:41:58;;;;;;;23.03;14.73;;;;;;;19.76;86.38;101279.00;5056922;28;20526;-64
2022/08/26 06:44:26;;;;;;;24.27;16.45;;;;;;;19.92;84.34;101286.22;5056126;28;20754;-63
2022/08/26 06:46:54;;;;;;;25.80;17.90;;;;;;;19.59;85.93;101287.75;5039137;28;20052;-64
2022/08/26 06:49:21;;;;;;;26.38;17.15;;;;;;;19.44;86.16;101282.97;5039118;28;20053;-65
2022/08/26 06:51:56;;;;;;;22.42;15.90;;;;;;;19.51;87.29;101289.53;5056519;28;20048;-66
2022/08/26 06:54:26;;;;;;;22.73;15.55;;;;;;;19.53;85.04;101283.59;5056596;28;20049;-63
2022/08/26 06:56:55;;;;;;;23.98;15.73;;;;;;;19.54;85.43;101302.00;5037762;28;20057;-63
2022/08/26 06:59:24;;;;;;;20.47;14.63;;;;;;;19.43;85.39;101298.91;5056259;28;20041;-65
2022/08/26 07:01:51;;;;;;;18.95;13.43;;;;;;;19.50;86.27;101296.31;5032414;28;20829;-66
2022/08/26 07:04:20;;;;;;;22.40;13.90;;;;;;;19.78;84.57;101290.63;5066604;28;20055;-66
2022/08/26 07:06:51;;;;;;;19.77;13.93;;;;;;;20.03;82.97;101294.84;5069850;28;20056;-66
2022/08/26 07:09:25;;;;;;;26.08;13.88;;;;;;;19.78;83.61;101294.25;5035397;28;20053;-66
2022/08/26 07:11:57;;;;;;;19.17;13.55;;;;;;;19.64;83.50;101298.66;5036328;28;20049;-66
2022/08/26 07:14:24;;;;;;;22.63;13.68;;;;;;;19.28;85.76;101304.44;5036407;28;20052;-65
2022/08/26 07:16:52;;;;;;;21.83;14.02;;;;;;;19.67;84.79;101289.53;5036320;28;20404;-67
2022/08/26 07:19:21;;;;;;;23.92;13.70;;;;;;;19.65;83.85;101295.50;5036574;28;20053;-66
2022/08/26 07:22:00;;;;;;;22.42;13.65;;;;;;;19.73;82.71;101297.31;5034315;28;20060;-66
2022/08/26 07:24:33;;;;;;;18.33;13.07;;;;;;;19.71;83.20;101291.28;5052546;28;20055;-66
2022/08/26 07:27:04;;;;;;;16.63;12.85;;;;;;;19.69;83.08;101296.41;5055973;28;20057;-65
2022/08/26 07:29:32;;;;;;;21.75;13.90;;;;;;;19.14;86.45;101299.28;5056317;28;20059;-66
2022/08/26 07:32:00;;;;;;;19.00;13.20;;;;;;;19.16;87.03;101302.50;5037347;28;20053;-66
2022/08/26 07:34:27;;;;;;;19.77;14.15;;;;;;;19.47;85.39;101311.00;5054513;28;20053;-65
2022/08/26 07:36:55;;;;;;;19.55;14.23;;;;;;;19.19;84.81;101306.59;5054217;28;20049;-65
2022/08/26 07:39:24;;;;;;;20.20;13.32;;;;;;;19.25;85.02;101310.75;5055991;28;20073;-66
2022/08/26 07:41:51;;;;;;;18.83;13.75;;;;;;;19.27;84.75;101309.22;5055517;28;20061;-67
2022/08/26 07:44:19;;;;;;;20.42;15.18;;;;;;;19.30;84.94;101318.88;5055847;28;20045;-67
2022/08/26 07:46:47;;;;;;;18.73;15.07;;;;;;;19.21;85.70;101307.03;5055811;28;20526;-66
2022/08/26 07:49:21;;;;;;;18.58;13.30;;;;;;;19.51;83.92;101306.31;5054585;28;20060;-66
2022/08/26 07:51:50;;;;;;;19.90;13.32;;;;;;;19.50;84.00;101304.69;5055031;28;20060;-66
2022/08/26 07:54:17;;;;;;;16.88;12.38;;;;;;;19.42;83.12;101300.06;5055536;28;20064;-66
2022/08/26 07:56:47;;;;;;;16.08;12.63;;;;;;;19.53;82.30;101295.59;5055637;28;20052;-68
2022/08/26 07:59:16;;;;;;;16.00;10.45;;;;;;;19.96;80.67;101284.28;5054413;28;20053;-65
2022/08/26 08:01:44;;;;;;;19.33;10.68;;;;;;;20.55;78.54;101300.09;5055430;28;20500;-66
2022/08/26 08:04:16;;;;;;;15.98;12.07;;;;;;;20.10;78.73;101295.03;5058154;28;20047;-66
2022/08/26 08:06:45;;;;;;;20.25;11.98;;;;;;;20.29;78.05;101299.88;5048954;28;20072;-66
2022/08/26 08:09:14;;;;;;;15.93;11.25;;;;;;;19.94;79.66;101302.63;5052126;28;20060;-66
2022/08/26 08:11:43;;;;;;;18.45;14.07;;;;;;;19.96;79.59;101309.47;5037747;28;20053;-66
2022/08/26 08:14:11;;;;;;;16.60;12.93;;;;;;;19.90;80.27;101308.13;5055196;28;20500;-66
2022/08/26 08:16:39;;;;;;;18.73;13.48;;;;;;;19.97;80.46;101296.28;5055248;28;20037;-68
2022/08/26 08:19:14;;;;;;;17.20;13.07;;;;;;;20.21;78.72;101304.50;5055484;28;20049;-66
2022/08/26 08:21:42;;;;;;;17.65;12.98;;;;;;;19.99;79.64;101300.38;5036805;28;20431;-67
2022/08/26 08:24:10;;;;;;;20.60;15.68;;;;;;;20.09;79.55;101299.81;5052295;28;20057;-66
2022/08/26 08:26:38;;;;;;;13.48;10.95;;;;;;;20.48;77.68;101297.13;5074923;28;20519;-67
2022/08/26 08:29:07;;;;;;;15.00;11.32;;;;;;;20.45;77.43;101304.25;5075054;28;20048;-67
2022/08/26 08:31:35;;;;;;;15.05;11.63;;;;;;;20.62;75.86;101294.63;5073839;28;20059;-66
2022/08/26 08:34:23;;;;;;;16.17;12.38;;;;;;;20.17;77.84;101298.03;5074080;28;20049;-67
2022/08/26 08:36:52;;;;;;;15.32;10.38;;;;;;;20.55;78.26;101288.88;5074369;28;20067;-66
2022/08/26 08:39:20;;;;;;;11.65;9.18;;;;;;;21.05;74.94;101298.00;5074893;28;20052;-67
2022/08/26 08:42:14;;;;;;;12.40;9.95;;;;;;;21.24;73.36;101291.53;5074637;28;20404;-65
2022/08/26 08:44:45;;;;;;;14.10;9.75;;;;;;;21.48;72.84;101290.41;5074487;28;20053;-66
2022/08/26 08:47:36;;;;;;;12.48;8.40;;;;;;;21.63;70.84;101283.84;5057587;28;20056;-66
2022/08/26 08:50:34;;;;;;;12.70;8.55;;;;;;;21.60;69.86;101282.59;5037763;28;20049;-66
2022/08/26 08:53:24;;;;;;;14.90;9.30;;;;;;;21.50;70.09;101288.00;5037139;28;20061;-66
2022/08/26 08:56:01;;;;;;;12.38;9.20;;;;;;;21.46;70.83;101284.34;5054194;28;20496;-67
2022/08/26 08:59:06;;;;;;;15.13;8.85;;;;;;;21.62;69.71;101287.84;5054720;28;20064;-66
2022/08/26 09:01:41;;;;;;;13.75;8.98;;;;;;;21.17;72.14;101288.59;5053746;28;20056;-66
2022/08/26 09:04:39;;;;;;;13.43;7.90;;;;;;;21.10;72.59;101286.47;5062471;28;20048;-65
2022/08/26 09:07:12;;;;;;;14.45;8.52;;;;;;;20.86;72.81;101300.78;5028627;28;20052;-66
2022/08/26 09:09:43;;;;;;;12.20;8.10;;;;;;;20.81;73.34;101298.28;5014535;28;20042;-66
2022/08/26 09:12:19;;;;;;;19.08;10.18;;;;;;;20.74;73.55;101288.91;5010643;28;20651;-65
2022/08/26 09:15:10;;;;;;;14.25;8.55;;;;;;;21.27;72.08;101288.81;5015422;28;20620;-66
2022/08/26 09:18:42;;;;;;;12.98;7.93;;;;;;;21.58;71.39;101282.19;5013914;28;20054;-67
2022/08/26 09:21:14;;;;;;;11.98;8.02;;;;;;;21.44;70.71;101281.94;4974800;28;20065;-66
2022/08/26 09:23:53;;;;;;;13.10;8.07;;;;;;;21.58;70.81;101286.97;5023947;28;20527;-66
2022/08/26 09:26:25;;;;;;;11.48;7.53;;;;;;;21.74;70.35;101276.44;5030034;28;20054;-66
2022/08/26 09:29:03;;;;;;;14.00;7.30;;;;;;;21.89;69.88;101278.31;5030443;28;20061;-65
2022/08/26 09:31:34;;;;;;;11.77;7.07;;;;;;;21.61;69.89;101275.81;5014090;28;20053;-66
2022/08/26 09:34:11;;;;;;;11.48;6.60;;;;;;;21.76;68.76;101274.06;5014014;28;20404;-67
2022/08/26 09:36:55;;;;;;;13.55;6.95;;;;;;;21.62;70.21;101282.25;5027455;28;20053;-65
2022/08/26 09:39:35;;;;;;;10.73;6.72;;;;;;;21.87;69.98;101278.69;5034944;28;20528;-66
2022/08/26 09:42:21;;;;;;;13.68;7.20;;;;;;;21.93;68.68;101274.38;5033034;28;20049;-68
2022/08/26 09:44:59;;;;;;;57.92;9.55;;;;;;;22.35;67.31;101269.41;5035427;28;20520;-68
2022/08/26 09:47:31;;;;;;;10.30;7.13;;;;;;;21.98;67.87;101281.66;5020662;28;20065;-66
2022/08/26 09:50:10;;;;;;;9.85;7.07;;;;;;;21.54;69.87;101286.91;5038453;28;20045;-67
2022/08/26 09:52:38;;;;;;;13.40;7.22;;;;;;;21.14;71.09;101292.16;5037804;28;20408;-66
2022/08/26 09:55:19;;;;;;;;;;;;;;;20.99;72.24;101281.88;5038527;28;20052;-66
2022/08/26 09:57:48;;;;;;;10.45;6.38;;;;;;;21.24;71.99;101283.94;5017131;28;20048;-67
2022/08/26 10:00:23;;;;;;;;;;;;;;;21.30;71.40;101280.84;5016065;28;20073;-66
2022/08/26 10:02:51;;;;;;;14.27;5.95;;;;;;;21.88;69.81;101280.28;5018334;28;19922;-67
2022/08/26 10:05:43;;;;;;;10.00;6.85;;;;;;;21.71;68.87;101280.78;5040428;28;20216;-65
2022/08/26 10:08:26;;;;;;;9.55;6.22;;;;;;;21.70;69.15;101269.94;5024587;28;20057;-66
2022/08/26 10:10:57;;;;;;;11.98;6.80;;;;;;;21.83;69.76;101265.78;5037657;28;20052;-67
2022/08/26 10:13:35;;;;;;;10.95;6.85;;;;;;;21.87;68.03;101266.66;5036584;28;20419;-66
2022/08/26 10:16:16;;;;;;;21.83;14.23;;;;;;;22.73;65.88;101264.72;5035948;28;20072;-66
2022/08/26 10:18:59;;;;;;;11.70;6.10;;;;;;;22.86;64.37;101264.09;5020017;28;20060;-67
2022/08/26 10:21:31;;;;;;;8.70;6.07;;;;;;;22.73;64.14;101271.16;5035639;28;20064;-66
2022/08/26 10:24:01;;;;;;;10.85;5.43;;;;;;;22.29;64.92;101251.28;5049472;28;20067;-66
2022/08/26 10:26:37;;;;;;;10.97;6.90;;;;;;;22.29;65.17;101251.28;5047556;28;20412;-66
2022/08/26 10:29:12;;;;;;;10.40;6.15;;;;;;;22.64;64.56;101261.41;5037506;28;20049;-67
2022/08/26 10:31:47;;;;;;;9.30;6.07;;;;;;;22.45;64.44;101267.94;5035842;28;20048;-66
2022/08/26 10:34:17;;;;;;;12.18;6.40;;;;;;;22.43;64.94;101258.28;5036078;28;20530;-67
2022/08/26 10:36:55;;;;;;;8.65;6.07;;;;;;;22.44;64.24;101268.31;5035749;28;20389;-66
2022/08/26 10:39:49;;;;;;;11.07;6.47;;;;;;;22.24;65.30;101267.63;5021995;28;20145;-68
2022/08/26 10:42:34;;;;;;;10.20;5.93;;;;;;;22.52;64.57;101259.63;5036807;28;20037;-67
2022/08/26 10:45:05;;;;;;;11.45;5.93;;;;;;;22.34;64.34;101253.75;5035049;28;20061;-68
2022/08/26 10:47:44;;;;;;;15.02;9.13;;;;;;;22.86;62.93;101254.84;5036920;28;20053;-67
2022/08/26 10:50:12;;;;;;;23.85;13.60;;;;;;;23.00;61.36;101257.81;5019286;28;20500;-67
2022/08/26 10:52:54;;;;;;;20.30;11.88;;;;;;;23.12;60.20;101249.94;5037027;28;20049;-66
2022/08/26 10:55:37;;;;;;;13.57;7.95;;;;;;;23.08;60.82;101251.09;5034994;28;20068;-67
2022/08/26 10:58:28;;;;;;;10.68;6.65;;;;;;;22.98;61.12;101251.78;5035310;28;20060;-67
2022/08/26 11:04:02;;;;;;;11.57;7.25;;;;;;;23.19;60.25;101252.81;5041302;28;20050;-64
2022/08/26 11:06:30;;;;;;;8.57;4.57;;;;;;;23.07;58.03;101253.09;5053851;28;20086;-65
2022/08/26 11:09:00;;;;;;;8.77;5.10;;;;;;;22.72;59.47;101251.84;5050868;28;20056;-64
2022/08/26 11:11:39;;;;;;;;;;;;;;;23.03;58.87;101243.03;5057119;28;20045;-62
2022/08/26 11:14:18;;;;;;;6.57;5.00;;;;;;;23.16;58.38;101245.16;5056544;28;19932;-64
2022/08/26 11:16:57;;;;;;;12.53;4.80;;;;;;;23.04;57.33;101247.44;5056214;28;20060;-64
2022/08/26 11:19:34;;;;;;;7.22;4.68;;;;;;;23.04;58.09;101230.56;5038858;28;20049;-63
2022/08/26 11:22:24;;;;;;;14.82;5.30;;;;;;;23.73;56.76;101228.84;5037395;28;20064;-63
2022/08/26 11:24:52;;;;;;;11.88;4.38;;;;;;;24.09;57.22;101230.75;5056274;28;20651;-63
2022/08/26 11:27:22;;;;;;;8.27;5.55;;;;;;;23.91;55.43;101226.97;5055495;28;20506;-64
2022/08/26 11:30:08;;;;;;;7.07;4.13;;;;;;;23.66;55.17;101231.59;5056333;28;20048;-63
2022/08/26 11:32:37;;;;;;;5.78;3.28;;;;;;;23.21;52.77;101238.38;5076379;28;20057;-64
2022/08/26 11:35:32;;;;;;;5.88;3.10;;;;;;;23.25;52.09;101233.59;5076078;28;20056;-64
2022/08/26 11:38:13;;;;;;;6.53;3.00;;;;;;;23.45;52.63;101217.38;5045137;28;20056;-64
2022/08/26 11:40:40;;;;;;;6.60;3.30;;;;;;;23.58;53.58;101222.28;5056906;28;20071;-64
2022/08/26 11:43:20;;;;;;;4.47;3.20;;;;;;;23.77;53.89;101213.59;5058102;28;20048;-65
2022/08/26 11:45:59;;;;;;;6.03;3.45;;;;;;;23.96;52.26;101210.53;5074677;28;20067;-65
2022/08/26 11:48:32;;;;;;;6.97;3.67;;;;;;;24.20;52.07;101209.88;5057131;28;20052;-64